createdAt,value
2022-10-27T00:00:00.468Z,77.25
2022-10-27T00:00:21.533Z,77.22
2022-10-27T00:00:42.586Z,77.22
2022-10-27T00:01:03.675Z,77.23
2022-10-27T00:01:24.784Z,77.25
2022-10-27T00:01:45.868Z,77.20
2022-10-27T00:02:06.893Z,77.19
2022-10-27T00:02:28.045Z,77.21
2022-10-27T00:02:49.121Z,77.19
2022-10-27T00:03:14.976Z,77.18
2022-10-27T00:03:37.137Z,77.22
2022-10-27T00:03:58.203Z,77.21
2022-10-27T00:04:19.236Z,77.23
2022-10-27T00:04:40.322Z,77.25
2022-10-27T00:05:01.349Z,77.31
2022-10-27T00:05:22.400Z,77.31
2022-10-27T00:05:43.470Z,77.28
2022-10-27T00:06:04.651Z,77.26
2022-10-27T00:06:25.710Z,77.27
2022-10-27T00:06:46.740Z,77.30
2022-10-27T00:07:07.804Z,77.29
2022-10-27T00:07:28.858Z,77.30
2022-10-27T00:07:50.238Z,77.29
2022-10-27T00:08:11.452Z,77.28
2022-10-27T00:08:32.533Z,77.27
2022-10-27T00:08:53.595Z,77.30
2022-10-27T00:09:14.633Z,77.27
2022-10-27T00:09:35.703Z,77.33
2022-10-27T00:09:56.733Z,77.34
2022-10-27T00:10:17.815Z,77.29
2022-10-27T00:10:38.849Z,77.31
2022-10-27T00:10:59.937Z,77.24
2022-10-27T00:11:21.001Z,77.25
2022-10-27T00:11:42.096Z,77.21
2022-10-27T00:12:03.123Z,77.23
2022-10-27T00:12:24.171Z,77.23
2022-10-27T00:12:45.229Z,77.22
2022-10-27T00:13:06.288Z,77.27
2022-10-27T00:13:27.361Z,77.29
2022-10-27T00:13:48.408Z,77.30
2022-10-27T00:14:09.467Z,77.35
2022-10-27T00:14:30.535Z,77.33
2022-10-27T00:14:51.581Z,77.35
2022-10-27T00:15:12.657Z,77.38
2022-10-27T00:15:33.691Z,77.37
2022-10-27T00:15:54.764Z,77.36
2022-10-27T00:16:15.842Z,77.34
2022-10-27T00:16:36.878Z,77.30
2022-10-27T00:16:57.928Z,77.31
2022-10-27T00:17:18.977Z,77.33
2022-10-27T00:17:40.063Z,77.29
2022-10-27T00:18:01.117Z,77.28
2022-10-27T00:18:22.162Z,77.33
2022-10-27T00:18:43.232Z,77.29
2022-10-27T00:19:04.284Z,77.32
2022-10-27T00:19:25.317Z,77.31
2022-10-27T00:19:46.391Z,77.33
2022-10-27T00:20:07.442Z,77.31
2022-10-27T00:20:28.490Z,77.36
2022-10-27T00:20:49.537Z,77.34
2022-10-27T00:21:10.589Z,77.44
2022-10-27T00:21:31.647Z,77.49
2022-10-27T00:21:52.693Z,77.50
2022-10-27T00:22:13.755Z,77.44
2022-10-27T00:22:34.799Z,77.44
2022-10-27T00:22:55.845Z,77.40
2022-10-27T00:23:16.916Z,77.33
2022-10-27T00:23:38.025Z,77.29
2022-10-27T00:23:59.050Z,77.38
2022-10-27T00:24:20.113Z,77.35
2022-10-27T00:24:41.165Z,77.28
2022-10-27T00:25:02.214Z,77.19
2022-10-27T00:25:23.387Z,77.15
2022-10-27T00:25:44.544Z,77.04
2022-10-27T00:26:05.596Z,77.01
2022-10-27T00:26:26.673Z,76.95
2022-10-27T00:26:47.712Z,76.96
2022-10-27T00:27:08.755Z,76.97
2022-10-27T00:27:29.827Z,77.06
2022-10-27T00:27:50.863Z,77.12
2022-10-27T00:28:12.011Z,77.14
2022-10-27T00:28:33.054Z,77.14
2022-10-27T00:28:54.122Z,77.14
2022-10-27T00:29:15.246Z,77.12
2022-10-27T00:29:36.264Z,77.12
2022-10-27T00:29:57.315Z,77.12
2022-10-27T00:30:18.409Z,77.09
2022-10-27T00:30:39.439Z,77.14
2022-10-27T00:31:00.594Z,77.14
2022-10-27T00:31:21.650Z,77.15
2022-10-27T00:31:42.707Z,77.16
2022-10-27T00:32:03.778Z,77.17
2022-10-27T00:32:24.848Z,77.17
2022-10-27T00:32:45.885Z,77.26
2022-10-27T00:33:06.967Z,77.24
2022-10-27T00:33:28.016Z,77.27
2022-10-27T00:33:49.064Z,77.27
2022-10-27T00:34:10.123Z,77.32
2022-10-27T00:34:31.176Z,77.37
2022-10-27T00:34:52.248Z,77.30
2022-10-27T00:35:13.289Z,77.29
2022-10-27T00:35:34.343Z,77.31
2022-10-27T00:35:55.394Z,77.36
2022-10-27T00:36:16.610Z,77.34
2022-10-27T00:36:37.708Z,77.41
2022-10-27T00:36:58.735Z,77.41
2022-10-27T00:37:19.806Z,77.41
2022-10-27T00:37:40.844Z,77.42
2022-10-27T00:38:01.898Z,77.39
2022-10-27T00:38:22.970Z,77.43
2022-10-27T00:38:44.022Z,77.42
2022-10-27T00:39:05.065Z,77.42
2022-10-27T00:39:26.127Z,77.42
2022-10-27T00:39:47.176Z,77.47
2022-10-27T00:40:08.235Z,77.45
2022-10-27T00:40:29.283Z,77.41
2022-10-27T00:40:50.350Z,77.41
2022-10-27T00:41:11.390Z,77.43
2022-10-27T00:41:32.551Z,77.38
2022-10-27T00:41:53.615Z,77.39
2022-10-27T00:42:14.678Z,77.38
2022-10-27T00:42:35.711Z,77.44
2022-10-27T00:42:56.764Z,77.46
2022-10-27T00:43:17.826Z,77.44
2022-10-27T00:43:38.875Z,77.49
2022-10-27T00:43:59.947Z,77.47
2022-10-27T00:44:20.989Z,77.49
2022-10-27T00:44:42.060Z,77.44
2022-10-27T00:45:24.133Z,77.44
2022-10-27T00:45:45.171Z,77.41
2022-10-27T00:46:06.229Z,77.38
2022-10-27T00:46:27.293Z,77.34
2022-10-27T00:46:48.464Z,77.37
2022-10-27T00:47:09.499Z,77.33
2022-10-27T00:47:30.548Z,77.32
2022-10-27T00:47:51.960Z,77.34
2022-10-27T00:48:13.180Z,77.26
2022-10-27T00:48:34.262Z,77.34
2022-10-27T00:48:55.286Z,77.34
2022-10-27T00:49:16.343Z,77.36
2022-10-27T00:49:37.405Z,77.33
2022-10-27T00:49:58.466Z,77.30
2022-10-27T00:50:19.496Z,77.23
2022-10-27T00:50:40.547Z,77.19
2022-10-27T00:51:01.607Z,77.14
2022-10-27T00:51:22.770Z,77.20
2022-10-27T00:51:43.825Z,77.20
2022-10-27T00:52:04.888Z,77.22
2022-10-27T00:52:25.932Z,77.22
2022-10-27T00:52:46.998Z,77.24
2022-10-27T00:53:08.088Z,77.21
2022-10-27T00:53:29.129Z,77.27
2022-10-27T00:53:50.187Z,77.26
2022-10-27T00:54:11.243Z,77.26
2022-10-27T00:54:32.323Z,77.27
2022-10-27T00:54:53.370Z,77.25
2022-10-27T00:55:14.450Z,77.24
2022-10-27T00:55:35.474Z,77.34
2022-10-27T00:55:56.535Z,77.31
2022-10-27T00:56:17.583Z,77.36
2022-10-27T00:56:38.641Z,77.33
2022-10-27T00:56:59.686Z,77.35
2022-10-27T00:57:20.740Z,77.35
2022-10-27T00:57:41.809Z,77.26
2022-10-27T00:58:02.854Z,77.27
2022-10-27T00:58:23.901Z,77.26
2022-10-27T00:58:44.976Z,77.27
2022-10-27T00:59:06.027Z,77.22
2022-10-27T00:59:27.082Z,77.22
2022-10-27T00:59:48.149Z,77.22
2022-10-27T01:00:09.188Z,77.18
2022-10-27T01:00:30.272Z,77.19
2022-10-27T01:00:51.321Z,77.14
2022-10-27T01:01:12.445Z,77.08
2022-10-27T01:01:33.874Z,77.08
2022-10-27T01:01:55.180Z,77.08
2022-10-27T01:02:16.251Z,77.09
2022-10-27T01:02:37.317Z,77.13
2022-10-27T01:02:58.376Z,77.17
2022-10-27T01:03:19.427Z,77.18
2022-10-27T01:03:40.483Z,77.20
2022-10-27T01:04:01.577Z,77.19
2022-10-27T01:04:22.622Z,77.18
2022-10-27T01:04:43.688Z,77.14
2022-10-27T01:05:04.753Z,77.16
2022-10-27T01:05:25.791Z,77.21
2022-10-27T01:05:46.838Z,77.23
2022-10-27T01:06:07.887Z,77.23
2022-10-27T01:06:28.937Z,77.27
2022-10-27T01:06:50.006Z,77.26
2022-10-27T01:07:11.065Z,77.24
2022-10-27T01:07:32.267Z,77.21
2022-10-27T01:07:53.275Z,77.21
2022-10-27T01:08:14.335Z,77.16
2022-10-27T01:08:35.368Z,77.14
2022-10-27T01:08:56.432Z,77.19
2022-10-27T01:09:17.496Z,77.24
2022-10-27T01:09:38.553Z,77.23
2022-10-27T01:09:59.601Z,77.23
2022-10-27T01:10:20.641Z,77.29
2022-10-27T01:10:41.698Z,77.21
2022-10-27T01:11:02.741Z,77.22
2022-10-27T01:11:23.792Z,77.14
2022-10-27T01:11:44.967Z,77.18
2022-10-27T01:12:06.022Z,77.19
2022-10-27T01:12:27.074Z,77.20
2022-10-27T01:12:48.298Z,77.28
2022-10-27T01:13:09.465Z,77.29
2022-10-27T01:13:30.519Z,77.27
2022-10-27T01:13:51.569Z,77.25
2022-10-27T01:14:12.620Z,77.26
2022-10-27T01:14:33.693Z,77.21
2022-10-27T01:14:54.727Z,77.20
2022-10-27T01:15:15.798Z,77.21
2022-10-27T01:15:36.843Z,77.17
2022-10-27T01:15:57.910Z,77.12
2022-10-27T01:16:18.969Z,77.07
2022-10-27T01:16:40.026Z,77.18
2022-10-27T01:17:01.079Z,77.16
2022-10-27T01:17:22.125Z,77.17
2022-10-27T01:17:43.194Z,77.18
2022-10-27T01:18:04.257Z,77.23
2022-10-27T01:18:25.298Z,77.25
2022-10-27T01:18:46.341Z,77.29
2022-10-27T01:19:07.405Z,77.27
2022-10-27T01:19:28.449Z,77.26
2022-10-27T01:19:49.493Z,77.17
2022-10-27T01:20:10.559Z,77.17
2022-10-27T01:20:31.588Z,77.16
2022-10-27T01:20:52.658Z,77.19
2022-10-27T01:21:13.725Z,77.24
2022-10-27T01:21:34.778Z,77.21
2022-10-27T01:21:55.981Z,77.22
2022-10-27T01:22:17.049Z,77.20
2022-10-27T01:22:38.108Z,77.23
2022-10-27T01:22:59.174Z,77.18
2022-10-27T01:23:20.211Z,77.15
2022-10-27T01:23:41.276Z,77.20
2022-10-27T01:24:02.337Z,77.17
2022-10-27T01:24:23.392Z,77.22
2022-10-27T01:24:44.453Z,77.19
2022-10-27T01:25:05.476Z,77.20
2022-10-27T01:25:26.534Z,77.20
2022-10-27T01:25:47.593Z,77.20
2022-10-27T01:26:08.763Z,77.26
2022-10-27T01:26:29.805Z,77.25
2022-10-27T01:26:50.876Z,77.21
2022-10-27T01:27:11.913Z,77.16
2022-10-27T01:27:32.975Z,77.17
2022-10-27T01:27:54.021Z,77.09
2022-10-27T01:28:15.073Z,77.13
2022-10-27T01:28:36.129Z,77.16
2022-10-27T01:28:57.188Z,77.07
2022-10-27T01:29:18.233Z,77.13
2022-10-27T01:29:39.285Z,77.12
2022-10-27T01:30:00.349Z,77.23
2022-10-27T01:30:21.410Z,77.22
2022-10-27T01:30:42.472Z,77.25
2022-10-27T01:31:03.508Z,77.29
2022-10-27T01:31:24.562Z,77.22
2022-10-27T01:31:46.867Z,77.20
2022-10-27T01:32:08.212Z,77.17
2022-10-27T01:32:29.253Z,77.15
2022-10-27T01:32:50.759Z,77.19
2022-10-27T01:33:12.065Z,77.23
2022-10-27T01:33:33.108Z,77.29
2022-10-27T01:33:54.187Z,77.33
2022-10-27T01:34:15.224Z,77.33
2022-10-27T01:34:36.286Z,77.26
2022-10-27T01:34:57.336Z,77.19
2022-10-27T01:35:18.401Z,77.20
2022-10-27T01:35:39.429Z,77.22
2022-10-27T01:36:00.497Z,77.23
2022-10-27T01:36:21.536Z,77.25
2022-10-27T01:36:42.585Z,77.28
2022-10-27T01:37:03.659Z,77.24
2022-10-27T01:37:24.713Z,77.27
2022-10-27T01:37:45.781Z,77.23
2022-10-27T01:38:06.836Z,77.21
2022-10-27T01:38:27.863Z,77.26
2022-10-27T01:38:48.925Z,77.27
2022-10-27T01:39:09.990Z,77.24
2022-10-27T01:39:31.031Z,77.22
2022-10-27T01:39:52.070Z,77.22
2022-10-27T01:40:13.119Z,77.25
2022-10-27T01:40:34.193Z,77.22
2022-10-27T01:40:55.219Z,77.26
2022-10-27T01:41:16.284Z,77.24
2022-10-27T01:41:37.355Z,77.24
2022-10-27T01:41:58.400Z,77.22
2022-10-27T01:42:19.562Z,77.19
2022-10-27T01:42:40.604Z,77.18
2022-10-27T01:43:01.660Z,77.14
2022-10-27T01:43:22.709Z,77.18
2022-10-27T01:43:43.754Z,77.12
2022-10-27T01:44:04.808Z,77.12
2022-10-27T01:44:25.862Z,77.12
2022-10-27T01:44:46.935Z,77.10
2022-10-27T01:45:07.968Z,76.99
2022-10-27T01:45:29.015Z,77.07
2022-10-27T01:45:50.070Z,77.07
2022-10-27T01:46:11.122Z,77.05
2022-10-27T01:46:32.177Z,77.05
2022-10-27T01:46:53.232Z,77.10
2022-10-27T01:47:14.312Z,76.99
2022-10-27T01:47:35.344Z,76.97
2022-10-27T01:47:56.411Z,76.99
2022-10-27T01:48:17.458Z,76.96
2022-10-27T01:48:38.509Z,76.95
2022-10-27T01:48:59.564Z,76.92
2022-10-27T01:49:20.617Z,76.97
2022-10-27T01:49:41.686Z,76.97
2022-10-27T01:50:02.715Z,76.98
2022-10-27T01:50:23.868Z,76.99
2022-10-27T01:50:50.714Z,76.89
2022-10-27T01:51:11.951Z,76.94
2022-10-27T01:51:32.979Z,76.91
2022-10-27T01:51:54.025Z,76.89
2022-10-27T01:52:15.080Z,76.88
2022-10-27T01:52:36.172Z,76.92
2022-10-27T01:52:57.236Z,76.91
2022-10-27T01:53:18.301Z,76.91
2022-10-27T01:53:39.352Z,76.98
2022-10-27T01:54:00.408Z,77.00
2022-10-27T01:54:21.450Z,77.03
2022-10-27T01:54:42.517Z,77.06
2022-10-27T01:55:03.558Z,77.08
2022-10-27T01:55:24.613Z,77.04
2022-10-27T01:55:45.696Z,77.05
2022-10-27T01:56:06.735Z,77.02
2022-10-27T01:56:27.807Z,76.89
2022-10-27T01:56:48.839Z,76.80
2022-10-27T01:57:09.896Z,76.79
2022-10-27T01:57:30.967Z,76.76
2022-10-27T01:57:52.074Z,76.71
2022-10-27T01:58:13.136Z,76.72
2022-10-27T01:58:34.203Z,76.72
2022-10-27T01:58:55.234Z,76.74
2022-10-27T01:59:16.771Z,76.77
2022-10-27T01:59:37.828Z,76.75
2022-10-27T01:59:58.920Z,76.79
2022-10-27T02:00:19.945Z,76.81
2022-10-27T02:00:41.032Z,76.77
2022-10-27T02:01:02.137Z,76.77
2022-10-27T02:01:23.384Z,76.72
2022-10-27T02:01:44.478Z,76.72
2022-10-27T02:02:05.534Z,76.77
2022-10-27T02:02:26.574Z,76.76
2022-10-27T02:02:47.746Z,76.81
2022-10-27T02:03:08.982Z,76.83
2022-10-27T02:03:30.040Z,76.86
2022-10-27T02:03:51.108Z,76.83
2022-10-27T02:04:12.150Z,76.88
2022-10-27T02:04:33.217Z,76.89
2022-10-27T02:04:54.278Z,76.93
2022-10-27T02:05:15.354Z,76.96
2022-10-27T02:05:36.420Z,77.01
2022-10-27T02:05:57.459Z,77.06
2022-10-27T02:06:18.517Z,77.12
2022-10-27T02:06:39.575Z,77.11
2022-10-27T02:07:00.615Z,77.10
2022-10-27T02:07:21.696Z,77.12
2022-10-27T02:07:42.724Z,77.15
2022-10-27T02:08:03.761Z,77.06
2022-10-27T02:08:24.829Z,77.06
2022-10-27T02:08:45.894Z,77.13
2022-10-27T02:09:07.056Z,77.17
2022-10-27T02:09:28.119Z,77.19
2022-10-27T02:09:49.181Z,77.20
2022-10-27T02:10:10.232Z,77.14
2022-10-27T02:10:31.273Z,77.18
2022-10-27T02:10:52.318Z,77.21
2022-10-27T02:11:13.447Z,77.19
2022-10-27T02:11:34.484Z,77.20
2022-10-27T02:11:55.539Z,77.31
2022-10-27T02:12:16.583Z,77.30
2022-10-27T02:12:37.653Z,77.38
2022-10-27T02:12:58.709Z,77.39
2022-10-27T02:13:19.758Z,77.48
2022-10-27T02:13:40.830Z,77.54
2022-10-27T02:14:01.999Z,77.56
2022-10-27T02:14:23.056Z,77.56
2022-10-27T02:14:44.121Z,77.63
2022-10-27T02:15:05.184Z,77.67
2022-10-27T02:15:26.215Z,77.60
2022-10-27T02:15:47.270Z,77.59
2022-10-27T02:16:08.313Z,77.64
2022-10-27T02:16:29.371Z,77.61
2022-10-27T02:16:50.424Z,77.49
2022-10-27T02:17:11.478Z,77.48
2022-10-27T02:17:32.516Z,77.42
2022-10-27T02:17:53.574Z,77.42
2022-10-27T02:18:14.619Z,77.40
2022-10-27T02:18:35.669Z,77.43
2022-10-27T02:18:56.840Z,77.45
2022-10-27T02:19:17.917Z,77.41
2022-10-27T02:19:38.947Z,77.41
2022-10-27T02:19:59.996Z,77.36
2022-10-27T02:20:21.053Z,77.44
2022-10-27T02:20:42.122Z,77.42
2022-10-27T02:21:24.148Z,77.43
2022-10-27T02:21:45.222Z,77.43
2022-10-27T02:22:06.279Z,77.46
2022-10-27T02:22:27.322Z,77.44
2022-10-27T02:22:50.730Z,77.38
2022-10-27T02:23:12.640Z,77.26
2022-10-27T02:23:33.681Z,77.10
2022-10-27T02:23:54.871Z,76.98
2022-10-27T02:24:15.916Z,76.97
2022-10-27T02:24:36.965Z,76.98
2022-10-27T02:24:58.023Z,77.05
2022-10-27T02:25:19.069Z,77.02
2022-10-27T02:25:40.135Z,77.03
2022-10-27T02:26:01.186Z,77.02
2022-10-27T02:26:22.246Z,77.05
2022-10-27T02:26:43.285Z,77.15
2022-10-27T02:27:04.342Z,77.16
2022-10-27T02:27:25.389Z,77.20
2022-10-27T02:27:46.441Z,77.24
2022-10-27T02:28:07.489Z,77.25
2022-10-27T02:28:28.562Z,77.26
2022-10-27T02:28:49.613Z,77.25
2022-10-27T02:29:10.772Z,77.23
2022-10-27T02:29:31.825Z,77.24
2022-10-27T02:29:52.883Z,77.24
2022-10-27T02:30:13.929Z,77.17
2022-10-27T02:30:35.072Z,77.17
2022-10-27T02:30:56.090Z,77.14
2022-10-27T02:31:17.129Z,77.13
2022-10-27T02:31:38.184Z,77.14
2022-10-27T02:31:59.226Z,77.27
2022-10-27T02:32:20.272Z,77.15
2022-10-27T02:32:41.327Z,77.18
2022-10-27T02:33:02.366Z,77.17
2022-10-27T02:33:23.433Z,77.13
2022-10-27T02:33:44.466Z,77.19
2022-10-27T02:34:05.523Z,77.26
2022-10-27T02:34:26.687Z,77.24
2022-10-27T02:34:47.762Z,77.27
2022-10-27T02:35:08.809Z,77.29
2022-10-27T02:35:29.865Z,77.22
2022-10-27T02:35:50.958Z,77.29
2022-10-27T02:36:11.992Z,77.28
2022-10-27T02:36:33.030Z,77.22
2022-10-27T02:36:54.085Z,77.16
2022-10-27T02:37:15.145Z,77.23
2022-10-27T02:37:36.276Z,77.21
2022-10-27T02:37:57.420Z,77.25
2022-10-27T02:38:18.493Z,77.20
2022-10-27T02:38:39.553Z,77.26
2022-10-27T02:39:00.609Z,77.24
2022-10-27T02:39:21.679Z,77.11
2022-10-27T02:39:42.738Z,77.06
2022-10-27T02:40:03.783Z,77.07
2022-10-27T02:40:24.870Z,77.13
2022-10-27T02:40:45.931Z,77.15
2022-10-27T02:41:06.983Z,77.21
2022-10-27T02:41:28.033Z,77.15
2022-10-27T02:41:49.082Z,77.18
2022-10-27T02:42:10.141Z,77.19
2022-10-27T02:42:31.183Z,77.14
2022-10-27T02:42:52.583Z,77.12
2022-10-27T02:43:13.835Z,77.15
2022-10-27T02:43:34.889Z,77.08
2022-10-27T02:43:55.944Z,77.02
2022-10-27T02:44:17.021Z,77.12
2022-10-27T02:44:38.057Z,77.12
2022-10-27T02:44:59.249Z,77.13
2022-10-27T02:45:20.298Z,77.18
2022-10-27T02:45:41.353Z,77.17
2022-10-27T02:46:02.402Z,77.20
2022-10-27T02:46:23.446Z,77.17
2022-10-27T02:46:45.493Z,77.18
2022-10-27T02:47:09.812Z,77.10
2022-10-27T02:47:31.088Z,76.98
2022-10-27T02:47:52.077Z,76.92
2022-10-27T02:48:13.130Z,76.88
2022-10-27T02:48:34.179Z,76.84
2022-10-27T02:48:55.237Z,76.79
2022-10-27T02:49:16.280Z,76.80
2022-10-27T02:49:37.357Z,76.78
2022-10-27T02:49:58.400Z,76.81
2022-10-27T02:50:19.450Z,76.89
2022-10-27T02:50:40.515Z,76.95
2022-10-27T02:51:01.587Z,76.95
2022-10-27T02:51:22.629Z,76.98
2022-10-27T02:51:43.683Z,76.96
2022-10-27T02:52:04.843Z,76.93
2022-10-27T02:52:25.861Z,76.90
2022-10-27T02:52:46.915Z,76.88
2022-10-27T02:53:07.971Z,76.85
2022-10-27T02:53:29.043Z,76.90
2022-10-27T02:53:50.128Z,76.84
2022-10-27T02:54:11.157Z,76.88
2022-10-27T02:54:32.215Z,76.86
2022-10-27T02:54:53.261Z,76.80
2022-10-27T02:55:14.313Z,76.86
2022-10-27T02:55:56.521Z,76.83
2022-10-27T02:56:17.577Z,77.05
2022-10-27T02:56:38.626Z,76.98
2022-10-27T02:56:59.671Z,76.96
2022-10-27T02:57:20.746Z,76.99
2022-10-27T02:57:41.786Z,76.97
2022-10-27T02:58:02.840Z,76.99
2022-10-27T02:58:23.892Z,76.89
2022-10-27T02:58:44.948Z,76.78
2022-10-27T02:59:06.004Z,76.77
2022-10-27T02:59:27.045Z,76.74
2022-10-27T02:59:51.034Z,76.79
2022-10-27T03:00:15.176Z,76.86
2022-10-27T03:00:36.276Z,76.94
2022-10-27T03:00:57.379Z,76.97
2022-10-27T03:01:18.612Z,76.96
2022-10-27T03:01:39.963Z,76.89
2022-10-27T03:02:01.161Z,76.83
2022-10-27T03:02:22.309Z,76.75
2022-10-27T03:02:43.377Z,76.64
2022-10-27T03:03:04.427Z,76.55
2022-10-27T03:03:25.484Z,76.52
2022-10-27T03:03:46.532Z,76.56
2022-10-27T03:04:07.575Z,76.51
2022-10-27T03:04:28.626Z,76.58
2022-10-27T03:04:49.679Z,76.66
2022-10-27T03:05:10.729Z,76.63
2022-10-27T03:05:31.805Z,76.59
2022-10-27T03:05:52.867Z,76.66
2022-10-27T03:06:13.924Z,76.72
2022-10-27T03:06:34.964Z,76.82
2022-10-27T03:06:56.009Z,76.89
2022-10-27T03:07:17.078Z,76.89
2022-10-27T03:07:38.119Z,76.90
2022-10-27T03:07:59.167Z,76.92
2022-10-27T03:08:20.229Z,76.86
2022-10-27T03:08:41.287Z,76.87
2022-10-27T03:09:02.338Z,76.83
2022-10-27T03:09:23.388Z,76.85
2022-10-27T03:09:44.438Z,76.85
2022-10-27T03:10:05.582Z,76.87
2022-10-27T03:10:26.672Z,76.88
2022-10-27T03:10:47.735Z,76.90
2022-10-27T03:11:08.789Z,76.91
2022-10-27T03:11:29.845Z,76.86
2022-10-27T03:11:50.903Z,76.97
2022-10-27T03:12:11.956Z,76.94
2022-10-27T03:12:33.027Z,76.96
2022-10-27T03:12:54.341Z,76.97
2022-10-27T03:13:15.489Z,77.05
2022-10-27T03:13:36.542Z,77.09
2022-10-27T03:13:57.596Z,77.11
2022-10-27T03:14:18.656Z,77.19
2022-10-27T03:14:39.703Z,77.20
2022-10-27T03:15:00.765Z,77.28
2022-10-27T03:15:21.958Z,77.28
2022-10-27T03:15:43.013Z,77.28
2022-10-27T03:16:04.051Z,77.26
2022-10-27T03:16:25.114Z,77.26
2022-10-27T03:16:46.160Z,77.24
2022-10-27T03:17:07.221Z,77.19
2022-10-27T03:17:28.272Z,77.24
2022-10-27T03:17:49.320Z,77.22
2022-10-27T03:18:10.368Z,77.21
2022-10-27T03:18:31.417Z,77.19
2022-10-27T03:18:52.473Z,77.17
2022-10-27T03:19:13.524Z,77.24
2022-10-27T03:19:34.592Z,77.25
2022-10-27T03:19:55.669Z,77.26
2022-10-27T03:20:16.717Z,77.12
2022-10-27T03:20:37.890Z,77.13
2022-10-27T03:20:58.950Z,77.11
2022-10-27T03:21:20.014Z,77.22
2022-10-27T03:21:41.045Z,77.25
2022-10-27T03:22:02.088Z,77.33
2022-10-27T03:22:23.151Z,77.39
2022-10-27T03:22:44.211Z,77.39
2022-10-27T03:23:05.249Z,77.36
2022-10-27T03:23:26.309Z,77.32
2022-10-27T03:23:47.357Z,77.22
2022-10-27T03:24:08.409Z,77.23
2022-10-27T03:24:29.465Z,77.21
2022-10-27T03:24:50.511Z,77.16
2022-10-27T03:25:11.570Z,77.12
2022-10-27T03:25:32.650Z,77.16
2022-10-27T03:25:56.677Z,77.14
2022-10-27T03:26:20.671Z,77.22
2022-10-27T03:26:41.726Z,77.20
2022-10-27T03:27:02.784Z,77.18
2022-10-27T03:27:23.841Z,77.16
2022-10-27T03:27:44.889Z,77.20
2022-10-27T03:28:05.977Z,77.21
2022-10-27T03:28:26.989Z,77.22
2022-10-27T03:28:48.055Z,77.25
2022-10-27T03:29:09.107Z,77.21
2022-10-27T03:29:30.150Z,77.27
2022-10-27T03:29:51.214Z,77.28
2022-10-27T03:30:12.244Z,77.26
2022-10-27T03:30:33.426Z,77.28
2022-10-27T03:30:54.490Z,77.29
2022-10-27T03:31:15.531Z,77.33
2022-10-27T03:31:36.616Z,77.43
2022-10-27T03:31:57.650Z,77.44
2022-10-27T03:32:18.706Z,77.40
2022-10-27T03:32:39.752Z,77.41
2022-10-27T03:33:00.813Z,77.44
2022-10-27T03:33:21.866Z,77.47
2022-10-27T03:33:42.917Z,77.51
2022-10-27T03:34:03.974Z,77.47
2022-10-27T03:34:25.052Z,77.47
2022-10-27T03:34:46.090Z,77.53
2022-10-27T03:35:07.135Z,77.52
2022-10-27T03:35:28.323Z,77.49
2022-10-27T03:35:49.373Z,77.55
2022-10-27T03:36:10.424Z,77.49
2022-10-27T03:36:31.496Z,77.53
2022-10-27T03:36:52.531Z,77.52
2022-10-27T03:37:13.574Z,77.52
2022-10-27T03:37:34.626Z,77.51
2022-10-27T03:37:55.677Z,77.47
2022-10-27T03:38:16.732Z,77.42
2022-10-27T03:38:37.779Z,77.46
2022-10-27T03:38:58.856Z,77.42
2022-10-27T03:39:19.902Z,77.36
2022-10-27T03:40:01.948Z,77.40
2022-10-27T03:40:23.007Z,77.41
2022-10-27T03:40:44.078Z,77.44
2022-10-27T03:41:05.127Z,77.49
2022-10-27T03:41:26.210Z,77.50
2022-10-27T03:41:47.237Z,77.53
2022-10-27T03:42:08.291Z,77.49
2022-10-27T03:42:29.341Z,77.48
2022-10-27T03:42:50.619Z,77.48
2022-10-27T03:43:11.924Z,77.54
2022-10-27T03:43:32.958Z,77.57
2022-10-27T03:43:54.011Z,77.57
2022-10-27T03:44:15.070Z,77.52
2022-10-27T03:44:36.115Z,77.55
2022-10-27T03:44:57.170Z,77.57
2022-10-27T03:45:18.229Z,77.55
2022-10-27T03:45:39.319Z,77.49
2022-10-27T03:46:01.092Z,77.54
2022-10-27T03:46:22.297Z,77.56
2022-10-27T03:46:43.353Z,77.50
2022-10-27T03:47:04.419Z,77.46
2022-10-27T03:47:25.484Z,77.46
2022-10-27T03:47:46.557Z,77.41
2022-10-27T03:48:07.610Z,77.39
2022-10-27T03:48:28.696Z,77.42
2022-10-27T03:48:49.719Z,77.39
2022-10-27T03:49:10.760Z,77.49
2022-10-27T03:49:31.807Z,77.52
2022-10-27T03:49:52.854Z,77.51
2022-10-27T03:50:13.929Z,77.49
2022-10-27T03:50:34.963Z,77.51
2022-10-27T03:50:56.052Z,77.50
2022-10-27T03:51:17.091Z,77.43
2022-10-27T03:51:38.171Z,77.50
2022-10-27T03:51:59.210Z,77.51
2022-10-27T03:52:20.264Z,77.58
2022-10-27T03:52:41.314Z,77.60
2022-10-27T03:53:02.363Z,77.59
2022-10-27T03:53:23.416Z,77.65
2022-10-27T03:53:44.474Z,77.66
2022-10-27T03:54:05.527Z,77.61
2022-10-27T03:54:26.569Z,77.65
2022-10-27T03:54:47.618Z,77.68
2022-10-27T03:55:08.667Z,77.73
2022-10-27T03:55:29.723Z,77.75
2022-10-27T03:55:50.914Z,77.76
2022-10-27T03:56:11.954Z,77.80
2022-10-27T03:56:33.041Z,77.82
2022-10-27T03:56:54.099Z,77.81
2022-10-27T03:57:15.151Z,77.79
2022-10-27T03:57:36.222Z,77.76
2022-10-27T03:57:57.268Z,77.84
2022-10-27T03:58:18.324Z,77.85
2022-10-27T03:58:39.362Z,77.83
2022-10-27T03:59:00.429Z,77.83
2022-10-27T03:59:21.474Z,77.86
2022-10-27T03:59:42.516Z,77.87
2022-10-27T04:00:03.584Z,77.92
2022-10-27T04:00:24.623Z,77.89
2022-10-27T04:00:45.773Z,77.94
2022-10-27T04:01:06.995Z,77.90
2022-10-27T04:01:28.257Z,77.91
2022-10-27T04:01:49.417Z,77.87
2022-10-27T04:02:10.627Z,77.84
2022-10-27T04:02:31.749Z,77.79
2022-10-27T04:02:53.066Z,77.81
2022-10-27T04:03:14.276Z,77.73
2022-10-27T04:03:35.318Z,77.69
2022-10-27T04:03:56.370Z,77.66
2022-10-27T04:04:17.418Z,77.63
2022-10-27T04:04:38.495Z,77.60
2022-10-27T04:04:59.549Z,77.59
2022-10-27T04:05:20.585Z,77.62
2022-10-27T04:05:41.655Z,77.62
2022-10-27T04:06:02.854Z,77.61
2022-10-27T04:06:23.902Z,77.60
2022-10-27T04:06:44.968Z,77.60
2022-10-27T04:07:06.004Z,77.64
2022-10-27T04:07:27.097Z,77.68
2022-10-27T04:07:48.126Z,77.66
2022-10-27T04:08:09.189Z,77.73
2022-10-27T04:08:30.266Z,77.79
2022-10-27T04:08:51.310Z,77.83
2022-10-27T04:09:12.358Z,77.78
2022-10-27T04:09:33.429Z,77.79
2022-10-27T04:09:54.483Z,77.71
2022-10-27T04:10:15.531Z,77.71
2022-10-27T04:10:36.587Z,77.81
2022-10-27T04:10:57.654Z,77.79
2022-10-27T04:11:18.732Z,77.82
2022-10-27T04:11:39.769Z,77.84
2022-10-27T04:12:00.823Z,77.80
2022-10-27T04:12:21.867Z,77.84
2022-10-27T04:12:42.935Z,77.87
2022-10-27T04:13:03.992Z,77.96
2022-10-27T04:13:28.244Z,78.02
2022-10-27T04:13:52.006Z,78.11
2022-10-27T04:14:13.069Z,78.07
2022-10-27T04:14:34.123Z,78.04
2022-10-27T04:14:55.190Z,77.98
2022-10-27T04:15:16.297Z,77.97
2022-10-27T04:15:37.324Z,78.00
2022-10-27T04:15:58.428Z,78.07
2022-10-27T04:16:19.478Z,78.08
2022-10-27T04:16:40.534Z,78.08
2022-10-27T04:17:01.588Z,78.13
2022-10-27T04:17:22.630Z,78.11
2022-10-27T04:17:43.687Z,78.16
2022-10-27T04:18:04.761Z,78.20
2022-10-27T04:18:25.807Z,78.23
2022-10-27T04:18:46.990Z,78.30
2022-10-27T04:19:08.069Z,78.32
2022-10-27T04:19:29.113Z,78.37
2022-10-27T04:19:50.209Z,78.39
2022-10-27T04:20:11.223Z,78.35
2022-10-27T04:20:32.274Z,78.35
2022-10-27T04:20:53.354Z,78.41
2022-10-27T04:21:14.571Z,78.37
2022-10-27T04:21:35.631Z,78.34
2022-10-27T04:21:56.723Z,78.40
2022-10-27T04:22:17.795Z,78.40
2022-10-27T04:22:38.868Z,78.40
2022-10-27T04:22:59.910Z,78.34
2022-10-27T04:23:20.976Z,78.34
2022-10-27T04:23:42.030Z,78.29
2022-10-27T04:24:03.093Z,78.25
2022-10-27T04:24:24.146Z,78.23
2022-10-27T04:24:45.221Z,78.23
2022-10-27T04:25:06.252Z,78.27
2022-10-27T04:25:27.305Z,78.24
2022-10-27T04:25:48.351Z,78.23
2022-10-27T04:26:09.564Z,78.25
2022-10-27T04:26:30.602Z,78.25
2022-10-27T04:26:51.665Z,78.24
2022-10-27T04:27:33.709Z,78.26
2022-10-27T04:27:54.851Z,78.21
2022-10-27T04:28:15.913Z,78.18
2022-10-27T04:28:36.978Z,78.13
2022-10-27T04:28:58.027Z,78.17
2022-10-27T04:29:19.086Z,78.13
2022-10-27T04:29:40.145Z,78.07
2022-10-27T04:30:01.204Z,78.08
2022-10-27T04:30:22.248Z,78.00
2022-10-27T04:30:43.321Z,77.95
2022-10-27T04:31:04.353Z,77.89
2022-10-27T04:31:25.439Z,77.89
2022-10-27T04:31:46.491Z,77.89
2022-10-27T04:32:07.546Z,77.90
2022-10-27T04:32:28.597Z,77.98
2022-10-27T04:32:49.661Z,78.03
2022-10-27T04:33:10.744Z,77.99
2022-10-27T04:33:31.773Z,78.01